createdAt,value
2019-02-25T00:01:55.301Z,24.00
2019-02-25T00:04:23.967Z,23.40
2019-02-25T00:06:52.650Z,25.55
2019-02-25T00:09:21.307Z,23.07
2019-02-25T00:11:50.079Z,21.42
2019-02-25T00:14:18.826Z,24.15
2019-02-25T00:16:47.520Z,21.70
2019-02-25T00:19:16.277Z,21.85
2019-02-25T00:21:44.995Z,24.50
2019-02-25T00:24:13.658Z,23.10
2019-02-25T00:26:42.342Z,19.67
2019-02-25T00:29:10.991Z,22.13
2019-02-25T00:31:39.641Z,20.12
2019-02-25T00:34:08.364Z,22.32
2019-02-25T00:36:37.114Z,25.32
2019-02-25T00:39:06.625Z,25.55
2019-02-25T00:41:35.478Z,24.25
2019-02-25T00:44:04.243Z,24.95
2019-02-25T00:46:32.908Z,23.40
2019-02-25T00:49:01.678Z,23.05
2019-02-25T00:51:30.511Z,20.62
2019-02-25T00:53:59.411Z,25.37
2019-02-25T00:56:28.084Z,23.62
2019-02-25T00:58:56.753Z,25.32
2019-02-25T01:01:26.626Z,22.52
2019-02-25T01:03:55.311Z,24.98
2019-02-25T01:06:24.020Z,25.27
2019-02-25T01:08:52.700Z,24.70
2019-02-25T01:11:21.377Z,23.77
2019-02-25T01:13:50.105Z,29.45
2019-02-25T01:16:18.820Z,26.55
2019-02-25T01:18:47.460Z,26.25
2019-02-25T01:21:16.702Z,24.18
2019-02-25T01:23:45.350Z,28.52
2019-02-25T01:26:14.046Z,24.37
2019-02-25T01:28:42.703Z,25.15
2019-02-25T01:31:11.382Z,23.98
2019-02-25T01:33:40.346Z,26.30
2019-02-25T01:36:09.040Z,25.92
2019-02-25T01:38:37.725Z,24.40
2019-02-25T01:41:06.466Z,21.95
2019-02-25T01:43:35.140Z,21.57
2019-02-25T01:46:03.822Z,21.52
2019-02-25T01:48:32.563Z,22.52
2019-02-25T01:51:02.257Z,25.48
2019-02-25T01:53:30.937Z,23.95
2019-02-25T01:55:59.609Z,22.50
2019-02-25T01:58:28.351Z,22.05
2019-02-25T02:00:58.051Z,23.47
2019-02-25T02:03:29.562Z,24.70
2019-02-25T02:05:58.423Z,24.47
2019-02-25T02:08:27.095Z,28.23
2019-02-25T02:10:55.797Z,23.75
2019-02-25T02:13:24.599Z,26.00
2019-02-25T02:15:53.477Z,24.82
2019-02-25T02:18:22.189Z,23.35
2019-02-25T02:20:50.885Z,23.80
2019-02-25T02:23:19.619Z,28.17
2019-02-25T02:25:48.285Z,25.45
2019-02-25T02:28:16.979Z,25.75
2019-02-25T02:30:47.410Z,28.40
2019-02-25T02:33:16.167Z,25.45
2019-02-25T02:35:44.849Z,29.00
2019-02-25T02:38:13.500Z,25.97
2019-02-25T02:40:42.194Z,28.57
2019-02-25T02:43:10.890Z,27.37
2019-02-25T02:45:41.723Z,31.05
2019-02-25T02:48:12.251Z,28.42
2019-02-25T02:50:40.963Z,27.70
2019-02-25T02:53:09.646Z,25.95
2019-02-25T02:55:38.413Z,27.95
2019-02-25T02:58:08.077Z,25.50
2019-02-25T03:00:36.828Z,24.92
2019-02-25T03:03:05.524Z,22.45
2019-02-25T03:05:34.294Z,22.32
2019-02-25T03:08:03.156Z,25.37
2019-02-25T03:10:32.073Z,27.87
2019-02-25T03:13:00.781Z,24.63
2019-02-25T03:15:29.523Z,24.47
2019-02-25T03:17:58.237Z,24.70
2019-02-25T03:20:26.913Z,21.70
2019-02-25T03:22:55.789Z,24.92
2019-02-25T03:25:24.590Z,22.65
2019-02-25T03:27:53.331Z,24.67
2019-02-25T03:30:23.205Z,23.92
2019-02-25T03:32:51.951Z,24.87
2019-02-25T03:35:20.628Z,23.65
2019-02-25T03:37:52.913Z,23.47
2019-02-25T03:40:21.917Z,26.10
2019-02-25T03:42:50.668Z,24.87
2019-02-25T03:45:19.579Z,25.52
2019-02-25T03:47:48.339Z,27.93
2019-02-25T03:50:17.088Z,24.57
2019-02-25T03:52:45.843Z,24.60
2019-02-25T03:55:15.417Z,23.15
2019-02-25T03:57:44.151Z,24.73
2019-02-25T04:00:14.272Z,21.02
2019-02-25T04:02:42.970Z,26.10
2019-02-25T04:05:11.638Z,22.77
2019-02-25T04:07:40.345Z,20.60
2019-02-25T04:10:09.642Z,24.92
2019-02-25T04:12:38.355Z,27.55
2019-02-25T04:15:08.358Z,25.60
2019-02-25T04:17:37.140Z,25.32
2019-02-25T04:20:06.229Z,28.07
2019-02-25T04:22:36.075Z,26.02
2019-02-25T04:25:04.940Z,25.27
2019-02-25T04:27:33.607Z,23.67
2019-02-25T04:30:02.338Z,26.33
2019-02-25T04:32:31.074Z,26.02
2019-02-25T04:34:59.875Z,26.10
2019-02-25T04:37:28.619Z,23.47
2019-02-25T04:39:57.363Z,23.30
2019-02-25T04:42:26.005Z,22.58
2019-02-25T04:44:54.687Z,26.95
2019-02-25T04:47:23.477Z,24.32
2019-02-25T04:49:52.228Z,23.57
2019-02-25T04:52:20.955Z,23.65
2019-02-25T04:54:49.686Z,29.48
2019-02-25T04:57:19.503Z,26.82
2019-02-25T04:59:48.232Z,25.90
2019-02-25T05:02:17.000Z,23.60
2019-02-25T05:04:45.688Z,25.65
2019-02-25T05:07:14.470Z,24.37
2019-02-25T05:09:43.172Z,27.25
2019-02-25T05:12:11.896Z,23.70
2019-02-25T05:14:40.609Z,22.50
2019-02-25T05:17:09.354Z,23.20
2019-02-25T05:19:38.002Z,24.60
2019-02-25T05:22:06.679Z,25.72
2019-02-25T05:24:35.313Z,24.02
2019-02-25T05:27:04.110Z,25.82
2019-02-25T05:29:32.815Z,24.60
2019-02-25T05:32:01.449Z,26.85
2019-02-25T05:34:30.134Z,22.07
2019-02-25T05:36:58.788Z,23.57
2019-02-25T05:39:27.464Z,25.83
2019-02-25T05:41:56.169Z,25.80
2019-02-25T05:44:24.813Z,27.80
2019-02-25T05:46:53.580Z,24.87
2019-02-25T05:49:22.345Z,27.80
2019-02-25T05:54:39.993Z,25.40
2019-02-25T05:57:08.729Z,24.50
2019-02-25T05:59:37.419Z,23.55
2019-02-25T06:02:07.117Z,22.53
2019-02-25T06:04:35.868Z,23.85
2019-02-25T06:07:04.621Z,24.25
2019-02-25T06:09:33.385Z,20.57
2019-02-25T06:12:02.206Z,24.98
2019-02-25T06:14:30.879Z,21.05
2019-02-25T06:16:59.585Z,19.52
2019-02-25T06:19:28.241Z,22.13
2019-02-25T06:21:56.976Z,20.90
2019-02-25T06:24:25.714Z,21.95
2019-02-25T06:26:54.373Z,20.48
2019-02-25T06:29:23.175Z,23.27
2019-02-25T06:31:51.855Z,26.40
2019-02-25T06:34:20.580Z,25.88
2019-02-25T06:36:49.258Z,25.05
2019-02-25T06:39:17.963Z,25.65
2019-02-25T06:41:46.669Z,24.37
2019-02-25T06:44:15.335Z,24.72
2019-02-25T06:46:44.044Z,25.20
2019-02-25T06:49:12.880Z,28.77
2019-02-25T06:51:41.608Z,28.02
2019-02-25T06:54:10.313Z,27.82
2019-02-25T06:56:39.006Z,28.87
2019-02-25T06:59:07.995Z,37.10
2019-02-25T07:01:36.722Z,36.75
2019-02-25T07:04:27.523Z,38.15
2019-02-25T07:07:08.443Z,32.45
2019-02-25T07:09:49.979Z,27.25
2019-02-25T07:12:24.019Z,26.33
2019-02-25T07:15:14.803Z,26.00
2019-02-25T07:18:01.595Z,23.92
2019-02-25T07:20:47.890Z,24.20
2019-02-25T07:23:32.646Z,21.90
2019-02-25T07:26:11.019Z,24.85
2019-02-25T07:29:16.881Z,28.60
2019-02-25T07:32:07.523Z,32.48
2019-02-25T07:34:47.524Z,31.65
2019-02-25T07:37:44.497Z,29.20
2019-02-25T07:40:22.317Z,27.82
2019-02-25T07:42:58.523Z,38.15
2019-02-25T07:45:46.391Z,28.40
2019-02-25T07:48:23.337Z,29.02
2019-02-25T07:51:09.683Z,30.65
2019-02-25T07:53:56.320Z,32.63
2019-02-25T07:56:46.974Z,32.48
2019-02-25T07:59:46.967Z,29.35
2019-02-25T08:02:22.817Z,26.33
2019-02-25T08:05:18.266Z,25.08
2019-02-25T08:07:57.965Z,23.90
2019-02-25T08:10:57.624Z,27.17
2019-02-25T08:13:35.359Z,26.90
2019-02-25T08:16:26.357Z,26.52
2019-02-25T08:19:14.052Z,26.80
2019-02-25T08:22:19.942Z,28.07
2019-02-25T08:25:06.423Z,26.00
2019-02-25T08:27:41.478Z,25.50
2019-02-25T08:30:41.139Z,26.95
2019-02-25T08:33:20.213Z,29.07
2019-02-25T08:36:42.209Z,28.30
2019-02-25T08:39:42.917Z,28.15
2019-02-25T08:42:23.525Z,30.45
2019-02-25T08:45:03.789Z,33.38
2019-02-25T08:47:48.227Z,34.95
2019-02-25T08:50:16.936Z,30.90
2019-02-25T08:52:45.963Z,34.13
2019-02-25T08:55:14.906Z,35.45
2019-02-25T08:57:44.135Z,32.23
2019-02-25T09:00:13.469Z,38.42
2019-02-25T09:02:42.575Z,39.92
2019-02-25T09:05:12.998Z,38.55
2019-02-25T09:07:42.892Z,37.00
2019-02-25T09:10:13.457Z,33.40
2019-02-25T09:12:42.714Z,36.65
2019-02-25T09:15:11.935Z,32.10
2019-02-25T09:17:43.998Z,31.20
2019-02-25T09:20:13.420Z,37.27
2019-02-25T09:22:42.366Z,36.08
2019-02-25T09:25:12.574Z,32.60
2019-02-25T09:27:41.715Z,33.95
2019-02-25T09:30:12.383Z,36.38
2019-02-25T09:32:41.553Z,36.48
2019-02-25T09:35:10.716Z,34.57
2019-02-25T09:37:39.872Z,36.38
2019-02-25T09:40:11.425Z,35.33
2019-02-25T09:42:43.554Z,40.17
2019-02-25T09:45:13.345Z,40.15
2019-02-25T09:47:42.569Z,36.07
2019-02-25T09:50:16.089Z,38.93
2019-02-25T09:52:45.218Z,37.60
2019-02-25T09:55:14.370Z,36.15
2019-02-25T09:57:43.177Z,36.73
2019-02-25T10:00:14.500Z,33.95
2019-02-25T10:02:44.602Z,33.30
2019-02-25T10:05:13.530Z,32.90
2019-02-25T10:07:42.268Z,34.63
2019-02-25T10:10:12.589Z,34.23
2019-02-25T10:12:41.423Z,34.60
2019-02-25T10:15:11.036Z,35.10
2019-02-25T10:17:40.138Z,35.73
2019-02-25T10:20:09.050Z,33.40
2019-02-25T10:22:37.945Z,31.07
2019-02-25T10:25:07.641Z,36.05
2019-02-25T10:27:36.380Z,37.97
2019-02-25T10:30:05.736Z,34.67
2019-02-25T10:32:34.574Z,35.65
2019-02-25T10:35:03.467Z,36.40
2019-02-25T10:37:32.306Z,33.92
2019-02-25T10:40:01.099Z,35.35
2019-02-25T10:42:31.486Z,35.92
2019-02-25T10:45:02.545Z,36.65
2019-02-25T10:47:31.151Z,31.90
2019-02-25T10:50:00.807Z,33.20
2019-02-25T10:52:30.556Z,30.43
2019-02-25T10:54:59.350Z,37.35
2019-02-25T10:57:31.443Z,34.90
2019-02-25T11:00:00.347Z,36.08
2019-02-25T11:02:29.150Z,35.20
2019-02-25T11:04:57.861Z,33.18
2019-02-25T11:07:26.673Z,36.65
2019-02-25T11:10:06.605Z,36.25
2019-02-25T11:12:35.270Z,34.60
2019-02-25T11:15:05.303Z,35.28
2019-02-25T11:17:34.813Z,38.88
2019-02-25T11:20:06.336Z,36.80
2019-02-25T11:22:35.179Z,34.35
2019-02-25T11:25:04.209Z,34.13
2019-02-25T11:27:33.151Z,35.48
2019-02-25T11:30:03.353Z,37.07
2019-02-25T11:32:32.449Z,32.33
2019-02-25T11:35:03.963Z,34.00
2019-02-25T11:37:31.971Z,33.48
2019-02-25T11:40:01.953Z,37.23
2019-02-25T11:42:32.892Z,35.90
2019-02-25T11:45:04.234Z,34.53
2019-02-25T11:47:32.131Z,33.33
2019-02-25T11:50:00.783Z,32.65
2019-02-25T11:52:29.479Z,36.15
2019-02-25T11:54:58.328Z,35.50
2019-02-25T11:57:27.028Z,33.90
2019-02-25T11:59:58.842Z,32.90
2019-02-25T12:02:27.830Z,32.00
2019-02-25T12:04:56.551Z,33.42
2019-02-25T12:07:25.264Z,33.92
2019-02-25T12:09:54.029Z,36.73
2019-02-25T12:12:22.797Z,33.18
2019-02-25T12:14:51.591Z,27.58
2019-02-25T12:17:20.369Z,30.75
2019-02-25T12:19:51.129Z,29.15
2019-02-25T12:22:19.928Z,34.45
2019-02-25T12:24:48.662Z,31.62
2019-02-25T12:27:17.508Z,30.17
2019-02-25T12:29:46.327Z,32.63
2019-02-25T12:32:15.021Z,29.80
2019-02-25T12:34:43.815Z,28.27
2019-02-25T12:37:12.484Z,31.55
2019-02-25T12:39:41.215Z,32.20
2019-02-25T12:42:09.924Z,27.65
2019-02-25T12:44:38.580Z,30.23
2019-02-25T12:47:07.275Z,31.50
2019-02-25T12:49:35.939Z,26.30
2019-02-25T12:52:04.694Z,25.02
2019-02-25T12:54:33.404Z,32.38
2019-02-25T12:57:02.134Z,27.93
2019-02-25T12:59:30.904Z,29.57
2019-02-25T13:02:00.967Z,28.55
2019-02-25T13:04:29.764Z,28.83
2019-02-25T13:06:58.535Z,31.55
2019-02-25T13:09:27.236Z,28.83
2019-02-25T13:11:55.959Z,26.85
2019-02-25T13:14:24.768Z,26.60
2019-02-25T13:16:53.500Z,28.20
2019-02-25T13:19:22.260Z,27.02
2019-02-25T13:21:51.270Z,28.83
2019-02-25T13:24:21.847Z,28.17
2019-02-25T13:26:50.637Z,27.15
2019-02-25T13:29:19.410Z,30.25
2019-02-25T13:31:48.383Z,28.25
2019-02-25T13:34:18.614Z,29.48
2019-02-25T13:36:47.422Z,30.65
2019-02-25T13:39:17.295Z,25.70
2019-02-25T13:41:46.265Z,28.05
2019-02-25T13:44:15.219Z,25.65
2019-02-25T13:46:44.010Z,30.65
2019-02-25T13:49:12.862Z,25.92
2019-02-25T13:51:41.646Z,29.57
2019-02-25T13:54:10.407Z,30.68
2019-02-25T13:56:39.528Z,26.25
2019-02-25T13:59:08.785Z,27.22
2019-02-25T14:01:37.633Z,27.62
2019-02-25T14:04:06.479Z,30.65
2019-02-25T14:06:35.346Z,29.45
2019-02-25T14:09:06.529Z,29.23
2019-02-25T14:11:36.922Z,24.80
2019-02-25T14:14:06.639Z,25.75
2019-02-25T14:16:35.496Z,23.65
2019-02-25T14:19:04.830Z,27.95
2019-02-25T14:21:34.477Z,22.52
2019-02-25T14:24:04.212Z,24.05
2019-02-25T14:26:33.007Z,21.05
2019-02-25T14:29:01.737Z,21.73
2019-02-25T14:31:30.579Z,24.87
2019-02-25T14:33:59.329Z,21.48
2019-02-25T14:36:28.342Z,22.75
2019-02-25T14:38:59.436Z,25.48
2019-02-25T14:41:27.671Z,21.95
2019-02-25T14:43:58.339Z,22.48
2019-02-25T14:46:27.174Z,24.05
2019-02-25T14:48:57.015Z,22.25
2019-02-25T14:51:26.105Z,21.65
2019-02-25T14:53:55.073Z,20.90
2019-02-25T14:56:24.033Z,25.25
2019-02-25T14:58:52.962Z,22.75
2019-02-25T15:01:23.345Z,22.32
2019-02-25T15:03:55.523Z,25.32
2019-02-25T15:06:25.921Z,21.10
2019-02-25T15:08:55.190Z,22.37
2019-02-25T15:11:26.936Z,21.77
2019-02-25T15:13:55.742Z,20.57
2019-02-25T15:16:24.536Z,23.95
2019-02-25T15:18:53.316Z,20.72
2019-02-25T15:21:22.200Z,20.97
2019-02-25T15:23:51.118Z,20.88
2019-02-25T15:26:21.603Z,19.73
2019-02-25T15:28:53.679Z,24.67
2019-02-25T15:31:20.959Z,23.02
2019-02-25T15:33:49.861Z,25.40
2019-02-25T15:36:20.480Z,23.40
2019-02-25T15:38:49.134Z,21.57
2019-02-25T15:41:18.020Z,21.33
2019-02-25T15:43:46.931Z,20.75
2019-02-25T15:46:16.698Z,23.45
2019-02-25T15:48:46.271Z,23.18
2019-02-25T15:51:15.479Z,21.77
2019-02-25T15:53:48.644Z,23.25
2019-02-25T15:56:15.993Z,27.20
2019-02-25T15:58:47.042Z,26.33
2019-02-25T16:01:15.316Z,22.98
2019-02-25T16:03:44.038Z,25.02
2019-02-25T16:06:12.833Z,25.75
2019-02-25T16:08:41.539Z,21.97
2019-02-25T16:11:12.028Z,25.95
2019-02-25T16:13:41.139Z,22.58
2019-02-25T16:16:10.554Z,25.27
2019-02-25T16:18:40.456Z,24.47
2019-02-25T16:21:11.166Z,24.52
2019-02-25T16:23:41.364Z,26.70
2019-02-25T16:26:13.587Z,26.62
2019-02-25T16:28:42.414Z,25.27
2019-02-25T16:31:12.379Z,24.25
2019-02-25T16:33:41.924Z,22.65
2019-02-25T16:36:10.673Z,23.83
2019-02-25T16:38:39.503Z,24.18
2019-02-25T16:41:10.146Z,24.15
2019-02-25T16:43:38.803Z,22.17
2019-02-25T16:46:09.164Z,24.12
2019-02-25T16:48:39.053Z,28.60
2019-02-25T16:51:09.913Z,28.70
2019-02-25T16:53:39.032Z,27.30
2019-02-25T16:56:10.156Z,26.57
2019-02-25T16:58:39.402Z,26.68
2019-02-25T17:01:09.996Z,24.18
2019-02-25T17:03:39.731Z,25.17
2019-02-25T17:06:09.784Z,27.82
2019-02-25T17:08:39.696Z,29.48
2019-02-25T17:11:08.472Z,27.25
2019-02-25T17:13:39.826Z,28.52
2019-02-25T17:16:17.915Z,26.45
2019-02-25T17:18:39.105Z,29.57
2019-02-25T17:21:08.155Z,28.75
2019-02-25T17:23:38.613Z,27.75
2019-02-25T17:26:09.671Z,26.42
2019-02-25T17:28:38.291Z,31.48
2019-02-25T17:31:09.032Z,25.65
2019-02-25T17:33:38.705Z,27.75
2019-02-25T17:36:08.064Z,29.52
2019-02-25T17:38:37.965Z,29.23
2019-02-25T17:41:08.307Z,31.10
2019-02-25T17:43:39.140Z,30.82
2019-02-25T17:46:09.236Z,28.77
2019-02-25T17:48:38.445Z,30.88
2019-02-25T17:51:07.416Z,31.07
2019-02-25T17:53:36.203Z,28.05
2019-02-25T17:56:04.994Z,32.45
2019-02-25T17:58:35.761Z,29.12
2019-02-25T18:01:05.753Z,32.75
2019-02-25T18:03:35.135Z,30.60
2019-02-25T18:06:05.272Z,29.72
2019-02-25T18:08:35.444Z,27.30
2019-02-25T18:11:05.097Z,33.63
2019-02-25T18:13:35.224Z,29.72
2019-02-25T18:16:04.315Z,30.85
2019-02-25T18:18:36.546Z,30.55
2019-02-25T18:21:06.382Z,32.55
2019-02-25T18:23:36.385Z,30.97
2019-02-25T18:26:05.503Z,29.35
2019-02-25T18:28:34.855Z,29.60
2019-02-25T18:31:08.893Z,31.87
2019-02-25T18:33:35.195Z,33.83
2019-02-25T18:36:05.069Z,32.88
2019-02-25T18:38:35.022Z,31.48
2019-02-25T18:41:04.655Z,31.20
2019-02-25T18:43:34.344Z,34.13
2019-02-25T18:46:04.906Z,33.35
2019-02-25T18:48:33.648Z,31.70
2019-02-25T18:51:04.537Z,35.52
2019-02-25T18:53:33.579Z,30.45
2019-02-25T18:56:02.435Z,32.13
2019-02-25T18:58:33.651Z,33.48
2019-02-25T19:01:02.435Z,29.77
2019-02-25T19:03:33.118Z,31.68
2019-02-25T19:06:03.608Z,37.55
2019-02-25T19:08:32.145Z,33.45
2019-02-25T19:11:00.981Z,31.80
2019-02-25T19:13:31.619Z,30.88
2019-02-25T19:16:01.526Z,32.42
2019-02-25T19:18:32.220Z,31.60
2019-02-25T19:21:02.073Z,33.38
2019-02-25T19:23:33.099Z,33.28
2019-02-25T19:26:01.863Z,32.48
2019-02-25T19:28:31.597Z,33.05
2019-02-25T19:31:00.488Z,34.45
2019-02-25T19:33:31.229Z,32.80
2019-02-25T19:36:00.582Z,31.15
2019-02-25T19:38:32.075Z,34.15
2019-02-25T19:41:00.576Z,34.38
2019-02-25T19:43:29.451Z,32.73
2019-02-25T19:45:59.443Z,31.00
2019-02-25T19:48:31.376Z,33.55
2019-02-25T19:51:01.378Z,33.23
2019-02-25T19:53:35.823Z,29.82
2019-02-25T19:56:03.978Z,30.08
2019-02-25T19:58:34.197Z,36.90
2019-02-25T20:01:06.116Z,31.90
2019-02-25T20:03:35.187Z,30.92
2019-02-25T20:06:11.225Z,35.83
2019-02-25T20:08:36.954Z,32.60
2019-02-25T20:11:09.254Z,36.98
2019-02-25T20:13:36.062Z,34.25
2019-02-25T20:16:07.789Z,32.30
2019-02-25T20:18:37.583Z,31.85
2019-02-25T20:21:08.136Z,35.50
2019-02-25T20:23:36.989Z,32.90
2019-02-25T20:26:05.853Z,31.55
2019-02-25T20:28:34.606Z,34.50
2019-02-25T20:31:03.339Z,36.70
2019-02-25T20:33:33.084Z,34.43
2019-02-25T20:36:03.173Z,34.18
2019-02-25T20:38:34.556Z,33.85
2019-02-25T20:41:02.701Z,33.85
2019-02-25T20:43:32.513Z,32.78
2019-02-25T20:46:03.484Z,34.15
2019-02-25T20:48:32.238Z,31.52
2019-02-25T20:51:02.138Z,37.03
2019-02-25T20:53:33.530Z,34.78
2019-02-25T20:56:01.999Z,33.83
2019-02-25T20:58:30.933Z,34.35
2019-02-25T21:00:59.743Z,35.10
2019-02-25T21:03:28.651Z,35.08
2019-02-25T21:05:57.702Z,34.05
2019-02-25T21:08:26.616Z,34.88
2019-02-25T21:10:55.538Z,36.25
2019-02-25T21:13:28.434Z,31.85
2019-02-25T21:15:55.714Z,36.30
2019-02-25T21:18:26.310Z,33.50
2019-02-25T21:20:55.006Z,39.05
2019-02-25T21:23:23.738Z,32.50
2019-02-25T21:25:55.410Z,37.33
2019-02-25T21:28:25.079Z,36.15
2019-02-25T21:30:53.524Z,36.80
2019-02-25T21:33:23.725Z,39.10
2019-02-25T21:35:53.568Z,36.68
2019-02-25T21:38:24.350Z,39.65
2019-02-25T21:40:54.799Z,37.83
2019-02-25T21:43:26.118Z,36.85
2019-02-25T21:45:54.772Z,39.05
2019-02-25T21:48:25.649Z,37.48
2019-02-25T21:50:58.069Z,39.10
2019-02-25T21:53:25.067Z,37.42
2019-02-25T21:55:55.525Z,33.75
2019-02-25T21:58:25.440Z,39.23
2019-02-25T22:00:55.063Z,37.55
2019-02-25T22:03:23.779Z,37.40
2019-02-25T22:05:55.402Z,38.92
2019-02-25T22:08:26.479Z,39.05
2019-02-25T22:10:54.526Z,38.48
2019-02-25T22:13:23.387Z,37.40
2019-02-25T22:15:52.262Z,37.53
2019-02-25T22:18:21.009Z,40.35
2019-02-25T22:20:51.469Z,36.70
2019-02-25T22:23:22.211Z,35.17
2019-02-25T22:25:50.692Z,36.05
2019-02-25T22:28:19.597Z,37.48
2019-02-25T22:30:49.788Z,37.45
2019-02-25T22:33:26.812Z,36.88
2019-02-25T22:35:51.218Z,40.15
2019-02-25T22:38:19.437Z,34.05
2019-02-25T22:40:50.999Z,39.92
2019-02-25T22:43:20.835Z,38.30
2019-02-25T22:45:49.556Z,43.87
2019-02-25T22:48:19.124Z,44.63
2019-02-25T22:50:51.291Z,39.48
2019-02-25T22:53:19.053Z,36.98
2019-02-25T22:55:49.935Z,46.53
2019-02-25T22:58:18.224Z,45.20
2019-02-25T23:00:48.961Z,42.00
2019-02-25T23:03:20.410Z,42.60
2019-02-25T23:05:50.476Z,42.48
2019-02-25T23:08:21.026Z,43.08
2019-02-25T23:10:51.519Z,40.25
2019-02-25T23:13:22.465Z,37.85
2019-02-25T23:15:53.564Z,33.90
2019-02-25T23:18:25.136Z,39.20
2019-02-25T23:20:54.844Z,38.70
2019-02-25T23:23:25.439Z,41.92
2019-02-25T23:25:56.541Z,39.73
2019-02-25T23:28:26.124Z,42.95
2019-02-25T23:30:55.453Z,40.70
2019-02-25T23:33:24.793Z,43.63
2019-02-25T23:35:55.505Z,43.75
2019-02-25T23:38:23.826Z,42.58
2019-02-25T23:40:52.571Z,40.80
2019-02-25T23:43:23.580Z,41.45
2019-02-25T23:45:52.389Z,43.65
2019-02-25T23:48:21.066Z,37.55
2019-02-25T23:50:50.353Z,41.15
2019-02-25T23:53:20.174Z,47.43
2019-02-25T23:55:54.291Z,36.90
2019-02-25T23:58:24.112Z,41.20
